createdAt,value
2024-01-20T00:00:48.692Z,2245.00
2024-01-20T00:01:48.786Z,2244.00
2024-01-20T00:02:48.796Z,2242.00
2024-01-20T00:03:48.904Z,2240.00
2024-01-20T00:04:49.098Z,2239.00
2024-01-20T00:05:49.013Z,2240.00
2024-01-20T00:06:49.093Z,2237.00
2024-01-20T00:07:49.161Z,2235.00
2024-01-20T00:08:49.225Z,2233.00
2024-01-20T00:09:51.253Z,2233.00
2024-01-20T00:10:49.307Z,2238.00
2024-01-20T00:11:49.284Z,2238.00
2024-01-20T00:12:49.292Z,2234.00
2024-01-20T00:13:49.318Z,2230.00
2024-01-20T00:14:49.279Z,2231.00
2024-01-20T00:15:49.343Z,2228.00
2024-01-20T00:16:49.318Z,2228.00
2024-01-20T00:17:49.401Z,2229.00
2024-01-20T00:18:49.366Z,2234.00
2024-01-20T00:19:50.072Z,2232.00
2024-01-20T00:20:49.314Z,2230.00
2024-01-20T00:21:49.295Z,2225.00
2024-01-20T00:22:49.370Z,2222.00
2024-01-20T00:23:49.315Z,2224.00
2024-01-20T00:24:49.330Z,2222.00
2024-01-20T00:25:49.307Z,2219.00
2024-01-20T00:26:49.299Z,2218.00
2024-01-20T00:27:49.312Z,2217.00
2024-01-20T00:28:49.394Z,2212.00
2024-01-20T00:29:49.459Z,2209.00
2024-01-20T00:30:49.336Z,2207.00
2024-01-20T00:31:49.369Z,2204.00
2024-01-20T00:32:49.428Z,2203.00
2024-01-20T00:33:49.380Z,2199.00
2024-01-20T00:34:59.156Z,2197.00
2024-01-20T00:35:50.366Z,2200.00
2024-01-20T00:36:49.326Z,2202.00
2024-01-20T00:37:49.377Z,2202.00
2024-01-20T00:38:49.322Z,2201.00
2024-01-20T00:39:49.337Z,2202.00
2024-01-20T00:40:49.384Z,2201.00
2024-01-20T00:41:49.334Z,2200.00
2024-01-20T00:42:49.353Z,2200.00
2024-01-20T00:43:49.435Z,2198.00
2024-01-20T00:44:49.513Z,2200.00
2024-01-20T00:45:49.558Z,2202.00
2024-01-20T00:46:49.622Z,2201.00
2024-01-20T00:47:49.698Z,2199.00
2024-01-20T00:48:49.812Z,2198.00
2024-01-20T00:49:49.893Z,2195.00
2024-01-20T00:50:49.893Z,2196.00
2024-01-20T00:51:49.953Z,2198.00
2024-01-20T00:52:50.043Z,2197.00
2024-01-20T00:53:50.093Z,2199.00
2024-01-20T00:54:50.144Z,2198.00
2024-01-20T00:55:50.278Z,2195.00
2024-01-20T00:56:50.267Z,2197.00
2024-01-20T00:57:50.341Z,2193.00
2024-01-20T00:58:50.414Z,2197.00
2024-01-20T00:59:50.424Z,2198.00
2024-01-20T01:00:50.507Z,2198.00
2024-01-20T01:01:50.700Z,2197.00
2024-01-20T01:02:50.639Z,2197.00
2024-01-20T01:03:50.706Z,2196.00
2024-01-20T01:04:50.770Z,2194.00
2024-01-20T01:05:50.792Z,2193.00
2024-01-20T01:06:50.811Z,2192.00
2024-01-20T01:07:50.938Z,2190.00
2024-01-20T01:08:50.936Z,2188.00
2024-01-20T01:09:51.021Z,2179.00
2024-01-20T01:10:51.072Z,2180.00
2024-01-20T01:11:51.111Z,2178.00
2024-01-20T01:12:51.169Z,2176.00
2024-01-20T01:13:51.224Z,2177.00
2024-01-20T01:14:51.270Z,2176.00
2024-01-20T01:15:52.228Z,2174.00
2024-01-20T01:16:51.443Z,2177.00
2024-01-20T01:17:51.522Z,2177.00
2024-01-20T01:18:51.500Z,2179.00
2024-01-20T01:19:51.580Z,2173.00
2024-01-20T01:20:51.598Z,2175.00
2024-01-20T01:21:51.618Z,2173.00
2024-01-20T01:22:51.736Z,2173.00
2024-01-20T01:23:51.798Z,2172.00
2024-01-20T01:24:51.744Z,2173.00
2024-01-20T01:25:51.880Z,2168.00
2024-01-20T01:26:51.896Z,2164.00
2024-01-20T01:27:51.822Z,2161.00
2024-01-20T01:28:51.959Z,2160.00
2024-01-20T01:29:51.961Z,2162.00
2024-01-20T01:30:51.937Z,2164.00
2024-01-20T01:31:51.953Z,2167.00
2024-01-20T01:32:51.973Z,2164.00
2024-01-20T01:33:52.052Z,2166.00
2024-01-20T01:34:52.071Z,2164.00
2024-01-20T01:35:52.046Z,2163.00
2024-01-20T01:36:52.054Z,2162.00
2024-01-20T01:37:52.070Z,2163.00
2024-01-20T01:38:52.082Z,2165.00
2024-01-20T01:39:52.082Z,2167.00
2024-01-20T01:40:52.094Z,2168.00
2024-01-20T01:41:52.118Z,2166.00
2024-01-20T01:42:52.158Z,2166.00
2024-01-20T01:43:52.189Z,2167.00
2024-01-20T01:44:52.191Z,2166.00
2024-01-20T01:45:52.229Z,2163.00
2024-01-20T01:46:52.253Z,2161.00
2024-01-20T01:47:52.317Z,2159.00
2024-01-20T01:48:52.313Z,2160.00
2024-01-20T01:49:52.357Z,2162.00
2024-01-20T01:50:52.378Z,2163.00
2024-01-20T01:51:52.405Z,2162.00
2024-01-20T01:52:52.460Z,2161.00
2024-01-20T01:53:52.539Z,2162.00
2024-01-20T01:54:52.496Z,2160.00
2024-01-20T01:55:52.516Z,2165.00
2024-01-20T01:56:52.514Z,2161.00
2024-01-20T01:57:52.514Z,2158.00
2024-01-20T01:58:52.520Z,2154.00
2024-01-20T01:59:52.571Z,2153.00
2024-01-20T02:00:52.557Z,2154.00
2024-01-20T02:01:52.545Z,2153.00
2024-01-20T02:02:52.604Z,2151.00
2024-01-20T02:03:52.730Z,2149.00
2024-01-20T02:04:52.569Z,2149.00
2024-01-20T02:05:52.749Z,2151.00
2024-01-20T02:06:52.741Z,2150.00
2024-01-20T02:07:52.603Z,2150.00
2024-01-20T02:08:52.637Z,2148.00
2024-01-20T02:09:52.651Z,2145.00
2024-01-20T02:10:52.661Z,2142.00
2024-01-20T02:11:52.699Z,2138.00
2024-01-20T02:12:52.712Z,2135.00
2024-01-20T02:13:52.737Z,2133.00
2024-01-20T02:14:52.768Z,2133.00
2024-01-20T02:15:52.795Z,2134.00
2024-01-20T02:16:52.823Z,2131.00
2024-01-20T02:17:52.962Z,2130.00
2024-01-20T02:18:52.929Z,2133.00
2024-01-20T02:19:52.913Z,2136.00
2024-01-20T02:20:53.000Z,2137.00
2024-01-20T02:21:52.962Z,2138.00
2024-01-20T02:22:52.991Z,2140.00
2024-01-20T02:23:53.031Z,2137.00
2024-01-20T02:24:53.072Z,2135.00
2024-01-20T02:25:53.040Z,2132.00
2024-01-20T02:26:53.088Z,2133.00
2024-01-20T02:27:53.088Z,2133.00
2024-01-20T02:28:53.123Z,2130.00
2024-01-20T02:29:53.149Z,2129.00
2024-01-20T02:30:53.131Z,2132.00
2024-01-20T02:31:53.140Z,2132.00
2024-01-20T02:32:53.328Z,2129.00
2024-01-20T02:33:53.324Z,2130.00
2024-01-20T02:34:53.153Z,2124.00
2024-01-20T02:35:53.257Z,2122.00
2024-01-20T02:36:53.178Z,2119.00
2024-01-20T02:37:53.183Z,2116.00
2024-01-20T02:38:53.307Z,2121.00
2024-01-20T02:39:53.191Z,2125.00
2024-01-20T02:40:53.210Z,2124.00
2024-01-20T02:41:53.232Z,2124.00
2024-01-20T02:42:53.208Z,2126.00
2024-01-20T02:43:53.268Z,2124.00
2024-01-20T02:44:53.292Z,2126.00
2024-01-20T02:45:53.238Z,2125.00
2024-01-20T02:46:53.243Z,2124.00
2024-01-20T02:47:53.334Z,2125.00
2024-01-20T02:48:53.338Z,2123.00
2024-01-20T02:49:53.353Z,2122.00
2024-01-20T02:50:53.293Z,2123.00
2024-01-20T02:51:53.278Z,2124.00
2024-01-20T02:52:53.289Z,2121.00
2024-01-20T02:53:53.326Z,2120.00
2024-01-20T02:54:53.307Z,2120.00
2024-01-20T02:55:53.290Z,2124.00
2024-01-20T02:56:53.344Z,2122.00
2024-01-20T02:57:53.320Z,2121.00
2024-01-20T02:58:53.347Z,2121.00
2024-01-20T02:59:53.398Z,2124.00
2024-01-20T03:00:53.388Z,2122.00
2024-01-20T03:01:53.358Z,2120.00
2024-01-20T03:02:53.389Z,2121.00
2024-01-20T03:03:53.451Z,2120.00
2024-01-20T03:04:53.395Z,2119.00
2024-01-20T03:05:53.461Z,2118.00
2024-01-20T03:06:53.420Z,2118.00
2024-01-20T03:07:53.417Z,2120.00
2024-01-20T03:08:53.485Z,2120.00
2024-01-20T03:09:53.447Z,2118.00
2024-01-20T03:10:53.455Z,2120.00
2024-01-20T03:11:53.517Z,2122.00
2024-01-20T03:12:53.489Z,2124.00
2024-01-20T03:13:53.498Z,2125.00
2024-01-20T03:14:53.519Z,2124.00
2024-01-20T03:15:53.518Z,2124.00
2024-01-20T03:16:53.533Z,2119.00
2024-01-20T03:17:53.598Z,2119.00
2024-01-20T03:18:53.620Z,2118.00
2024-01-20T03:19:53.683Z,2119.00
2024-01-20T03:20:53.612Z,2118.00
2024-01-20T03:21:53.597Z,2119.00
2024-01-20T03:22:53.606Z,2121.00
2024-01-20T03:23:53.647Z,2120.00
2024-01-20T03:24:53.621Z,2120.00
2024-01-20T03:25:53.625Z,2116.00
2024-01-20T03:26:55.038Z,2114.00
2024-01-20T03:27:53.656Z,2114.00
2024-01-20T03:28:53.670Z,2116.00
2024-01-20T03:29:53.700Z,2113.00
2024-01-20T03:30:53.692Z,2111.00
2024-01-20T03:31:53.722Z,2113.00
2024-01-20T03:32:53.834Z,2108.00
2024-01-20T03:33:53.836Z,2103.00
2024-01-20T03:34:53.757Z,2102.00
2024-01-20T03:35:53.822Z,2101.00
2024-01-20T03:36:53.795Z,2100.00
2024-01-20T03:37:53.800Z,2099.00
2024-01-20T03:38:53.888Z,2100.00
2024-01-20T03:39:53.812Z,2098.00
2024-01-20T03:40:53.837Z,2097.00
2024-01-20T03:41:53.858Z,2095.00
2024-01-20T03:42:53.845Z,2096.00
2024-01-20T03:43:53.848Z,2097.00
2024-01-20T03:44:53.918Z,2097.00
2024-01-20T03:45:53.926Z,2098.00
2024-01-20T03:46:53.936Z,2095.00
2024-01-20T03:47:53.979Z,2091.00
2024-01-20T03:48:54.118Z,2090.00
2024-01-20T03:49:54.018Z,2089.00
2024-01-20T03:50:53.997Z,2087.00
2024-01-20T03:51:53.931Z,2086.00
2024-01-20T03:52:53.938Z,2087.00
2024-01-20T03:53:53.966Z,2089.00
2024-01-20T03:54:53.959Z,2090.00
2024-01-20T03:55:53.981Z,2087.00
2024-01-20T03:56:54.016Z,2085.00
2024-01-20T03:57:54.011Z,2084.00
2024-01-20T03:58:54.017Z,2086.00
2024-01-20T03:59:54.049Z,2084.00
2024-01-20T04:00:54.060Z,2082.00
2024-01-20T04:01:54.042Z,2084.00
2024-01-20T04:02:54.120Z,2083.00
2024-01-20T04:03:54.387Z,2082.00
2024-01-20T04:04:54.105Z,2084.00
2024-01-20T04:05:54.130Z,2079.00
2024-01-20T04:06:54.114Z,2081.00
2024-01-20T04:07:54.124Z,2076.00
2024-01-20T04:08:54.196Z,2075.00
2024-01-20T04:09:54.156Z,2074.00
2024-01-20T04:10:54.176Z,2074.00
2024-01-20T04:11:54.228Z,2078.00
2024-01-20T04:12:54.229Z,2081.00
2024-01-20T04:13:54.253Z,2083.00
2024-01-20T04:14:54.301Z,2087.00
2024-01-20T04:15:54.303Z,2084.00
2024-01-20T04:16:54.293Z,2082.00
2024-01-20T04:17:54.423Z,2081.00
2024-01-20T04:18:54.514Z,2084.00
2024-01-20T04:19:55.103Z,2083.00
2024-01-20T04:20:54.397Z,2080.00
2024-01-20T04:21:54.380Z,2079.00
2024-01-20T04:22:54.404Z,2079.00
2024-01-20T04:23:54.423Z,2077.00
2024-01-20T04:24:54.436Z,2077.00
2024-01-20T04:25:54.449Z,2076.00
2024-01-20T04:26:54.481Z,2077.00
2024-01-20T04:27:54.467Z,2074.00
2024-01-20T04:28:54.501Z,2073.00
2024-01-20T04:29:54.541Z,2071.00
2024-01-20T04:30:54.543Z,2070.00
2024-01-20T04:31:54.622Z,2070.00
2024-01-20T04:32:54.721Z,2069.00
2024-01-20T04:33:54.929Z,2070.00
2024-01-20T04:34:54.585Z,2071.00
2024-01-20T04:35:54.626Z,2072.00
2024-01-20T04:36:54.631Z,2071.00
2024-01-20T04:37:54.647Z,2069.00
2024-01-20T04:38:54.829Z,2063.00
2024-01-20T04:39:54.689Z,2062.00
2024-01-20T04:41:02.125Z,2040.00
2024-01-20T04:42:02.040Z,2043.00
2024-01-20T04:43:02.034Z,2044.00
2024-01-20T04:44:02.136Z,2043.00
2024-01-20T04:45:02.007Z,2041.00
2024-01-20T04:46:01.989Z,2046.00
2024-01-20T04:47:02.016Z,2049.00
2024-01-20T04:48:02.172Z,2048.00
2024-01-20T04:49:02.117Z,2050.00
2024-01-20T04:50:02.025Z,2051.00
2024-01-20T04:51:02.034Z,2053.00
2024-01-20T04:52:02.022Z,2055.00
2024-01-20T04:53:02.025Z,2056.00
2024-01-20T04:54:02.026Z,2056.00
2024-01-20T04:55:02.014Z,2051.00
2024-01-20T04:56:02.022Z,2047.00
2024-01-20T04:57:02.053Z,2047.00
2024-01-20T04:58:02.028Z,2046.00
2024-01-20T04:59:02.032Z,2047.00
2024-01-20T05:00:02.080Z,2044.00
2024-01-20T05:01:02.033Z,2042.00
2024-01-20T05:02:02.034Z,2043.00
2024-01-20T05:03:02.057Z,2040.00
2024-01-20T05:04:02.133Z,2040.00
2024-01-20T05:05:02.045Z,2042.00
2024-01-20T05:06:02.167Z,2039.00
2024-01-20T05:07:02.149Z,2035.00
2024-01-20T05:08:02.037Z,2036.00
2024-01-20T05:09:02.047Z,2034.00
2024-01-20T05:10:02.059Z,2034.00
2024-01-20T05:11:02.040Z,2037.00
2024-01-20T05:12:02.093Z,2039.00
2024-01-20T05:13:02.043Z,2037.00
2024-01-20T05:14:02.053Z,2038.00
2024-01-20T05:15:02.076Z,2035.00
2024-01-20T05:16:02.075Z,2035.00
2024-01-20T05:17:02.037Z,2037.00
2024-01-20T05:18:02.149Z,2039.00
2024-01-20T05:19:02.161Z,2035.00
2024-01-20T05:20:02.120Z,2031.00
2024-01-20T05:21:02.083Z,2031.00
2024-01-20T05:22:02.036Z,2029.00
2024-01-20T05:23:02.069Z,2027.00
2024-01-20T05:24:02.103Z,2028.00
2024-01-20T05:25:02.100Z,2028.00
2024-01-20T05:26:02.135Z,2032.00
2024-01-20T05:27:02.244Z,2030.00
2024-01-20T05:28:02.187Z,2028.00
2024-01-20T05:29:02.208Z,2026.00
2024-01-20T05:30:02.271Z,2028.00
2024-01-20T05:31:02.279Z,2025.00
2024-01-20T05:32:02.291Z,2021.00
2024-01-20T05:33:02.474Z,2018.00
2024-01-20T05:34:02.472Z,2013.00
2024-01-20T05:35:02.407Z,2017.00
2024-01-20T05:36:02.436Z,2018.00
2024-01-20T05:37:02.465Z,2018.00
2024-01-20T05:38:02.476Z,2018.00
2024-01-20T05:39:02.506Z,2019.00
2024-01-20T05:40:02.531Z,2021.00
2024-01-20T05:41:02.547Z,2018.00
2024-01-20T05:42:02.599Z,2018.00
2024-01-20T05:43:02.606Z,2017.00
2024-01-20T05:44:02.625Z,2013.00
2024-01-20T05:45:02.817Z,2014.00
2024-01-20T05:46:02.681Z,2015.00
2024-01-20T05:47:02.711Z,2015.00
2024-01-20T05:48:02.837Z,2015.00
2024-01-20T05:49:03.010Z,2017.00
2024-01-20T05:50:02.832Z,2015.00
2024-01-20T05:51:02.863Z,2016.00
2024-01-20T05:52:02.890Z,2016.00
2024-01-20T05:53:02.876Z,2015.00
2024-01-20T05:54:02.939Z,2016.00
2024-01-20T05:55:02.940Z,2014.00
2024-01-20T05:56:03.033Z,2015.00
2024-01-20T05:57:03.022Z,2013.00
2024-01-20T05:58:03.035Z,2013.00
2024-01-20T05:59:03.088Z,2015.00
2024-01-20T06:00:03.145Z,2012.00
2024-01-20T06:01:03.202Z,2009.00
2024-01-20T06:02:03.169Z,2009.00
2024-01-20T06:03:03.237Z,2009.00
2024-01-20T06:04:03.283Z,2010.00
2024-01-20T06:05:03.352Z,2011.00
2024-01-20T06:06:03.367Z,2011.00
2024-01-20T06:07:03.370Z,2013.00
2024-01-20T06:08:03.397Z,2016.00
2024-01-20T06:09:03.470Z,2017.00
2024-01-20T06:10:03.477Z,2014.00
2024-01-20T06:11:03.511Z,2017.00
2024-01-20T06:12:03.563Z,2016.00
2024-01-20T06:13:03.557Z,2012.00
2024-01-20T06:14:03.599Z,2012.00
2024-01-20T06:15:03.723Z,2015.00
2024-01-20T06:16:03.667Z,2010.00
2024-01-20T06:17:03.709Z,2008.00
2024-01-20T06:18:03.834Z,2006.00
2024-01-20T06:19:03.818Z,2003.00
2024-01-20T06:20:03.797Z,2004.00
2024-01-20T06:21:03.874Z,2004.00
2024-01-20T06:22:03.878Z,2002.00
2024-01-20T06:23:03.885Z,2002.00
2024-01-20T06:24:03.955Z,2002.00
2024-01-20T06:25:03.997Z,2001.00
2024-01-20T06:26:04.019Z,1998.00
2024-01-20T06:27:04.097Z,1995.00
2024-01-20T06:28:04.092Z,1998.00
2024-01-20T06:29:04.119Z,2003.00
2024-01-20T06:30:04.188Z,2004.00
2024-01-20T06:31:04.216Z,2008.00
2024-01-20T06:32:04.276Z,2009.00
2024-01-20T06:33:04.406Z,2010.00
2024-01-20T06:34:04.407Z,2011.00
2024-01-20T06:35:04.356Z,2009.00
2024-01-20T06:36:04.446Z,2007.00
2024-01-20T06:37:04.425Z,2006.00
2024-01-20T06:38:04.476Z,2007.00
2024-01-20T06:39:04.509Z,2009.00
2024-01-20T06:40:04.587Z,2008.00
2024-01-20T06:41:04.592Z,2008.00
2024-01-20T06:42:04.664Z,2008.00
2024-01-20T06:43:04.657Z,2008.00
2024-01-20T06:44:04.693Z,2007.00
2024-01-20T06:45:04.774Z,2006.00
2024-01-20T06:46:04.765Z,2005.00
2024-01-20T06:47:04.815Z,2001.00
2024-01-20T06:48:04.920Z,2000.00
2024-01-20T06:49:04.992Z,2001.00
2024-01-20T06:50:04.934Z,2001.00
2024-01-20T06:51:05.072Z,1999.00
2024-01-20T06:52:05.042Z,2000.00
2024-01-20T06:53:05.077Z,2001.00
2024-01-20T06:54:05.207Z,1999.00
2024-01-20T06:55:05.161Z,2000.00
2024-01-20T06:56:05.282Z,2004.00
2024-01-20T06:57:05.328Z,2003.00
2024-01-20T06:58:05.332Z,2006.00
2024-01-20T06:59:05.326Z,2004.00
2024-01-20T07:00:05.594Z,2004.00
2024-01-20T07:01:05.468Z,2002.00
2024-01-20T07:02:05.470Z,1996.00
2024-01-20T07:03:05.551Z,1992.00
2024-01-20T07:04:05.684Z,1990.00
2024-01-20T07:05:06.416Z,1989.00
2024-01-20T07:06:05.745Z,1990.00
2024-01-20T07:07:05.729Z,1988.00
2024-01-20T07:08:05.766Z,1987.00
2024-01-20T07:09:05.853Z,1989.00
2024-01-20T07:10:05.863Z,1988.00
2024-01-20T07:11:05.914Z,1988.00
2024-01-20T07:12:05.953Z,1982.00
2024-01-20T07:13:05.975Z,1977.00
2024-01-20T07:14:06.035Z,1979.00
2024-01-20T07:15:06.081Z,1983.00
2024-01-20T07:16:06.122Z,1985.00
2024-01-20T07:17:06.193Z,1984.00
2024-01-20T07:18:06.292Z,1985.00
2024-01-20T07:19:06.280Z,1982.00
2024-01-20T07:20:06.294Z,1983.00
2024-01-20T07:21:06.406Z,1984.00
2024-01-20T07:22:06.392Z,1983.00
2024-01-20T07:23:06.434Z,1984.00
2024-01-20T07:24:06.553Z,1986.00
2024-01-20T07:25:06.664Z,1986.00
2024-01-20T07:26:06.581Z,1983.00
2024-01-20T07:27:06.637Z,1981.00
2024-01-20T07:28:06.659Z,1979.00
2024-01-20T07:29:06.701Z,1978.00
2024-01-20T07:30:06.754Z,1981.00
2024-01-20T07:31:06.790Z,1982.00
2024-01-20T07:32:06.846Z,1986.00
2024-01-20T07:33:07.014Z,1986.00
2024-01-20T07:34:07.017Z,1983.00
2024-01-20T07:35:06.997Z,1982.00
2024-01-20T07:36:07.069Z,1977.00
2024-01-20T07:37:07.075Z,1977.00
2024-01-20T07:38:07.126Z,1975.00
2024-01-20T07:39:07.219Z,1969.00
2024-01-20T07:40:07.220Z,1969.00
2024-01-20T07:41:07.259Z,1966.00
2024-01-20T07:42:07.328Z,1967.00
2024-01-20T07:43:07.382Z,1968.00
2024-01-20T07:44:07.443Z,1966.00
2024-01-20T07:45:07.505Z,1966.00
2024-01-20T07:46:07.529Z,1964.00
2024-01-20T07:47:07.572Z,1965.00
2024-01-20T07:48:07.764Z,1964.00
2024-01-20T07:49:07.780Z,1962.00
2024-01-20T07:50:07.727Z,1961.00
2024-01-20T07:51:07.843Z,1958.00
2024-01-20T07:52:07.863Z,1955.00
2024-01-20T07:53:07.872Z,1959.00
2024-01-20T07:54:07.987Z,1959.00
2024-01-20T07:55:07.954Z,1959.00
2024-01-20T07:56:08.005Z,1961.00
2024-01-20T07:57:08.056Z,1958.00
2024-01-20T07:58:08.061Z,1959.00
2024-01-20T07:59:08.092Z,1957.00
2024-01-20T08:00:08.285Z,1956.00
2024-01-20T08:01:08.175Z,1954.00
2024-01-20T08:02:08.188Z,1952.00
2024-01-20T08:03:08.250Z,1955.00
2024-01-20T08:04:08.279Z,1956.00
2024-01-20T08:05:08.258Z,1956.00
2024-01-20T08:06:08.466Z,1955.00
2024-01-20T08:07:08.351Z,1951.00
2024-01-20T08:08:08.314Z,1953.00
2024-01-20T08:09:08.430Z,1948.00
2024-01-20T08:10:08.409Z,1948.00
2024-01-20T08:11:08.391Z,1948.00
2024-01-20T08:12:08.444Z,1947.00
2024-01-20T08:13:08.421Z,1948.00
2024-01-20T08:14:08.410Z,1948.00
2024-01-20T08:15:08.514Z,1947.00
2024-01-20T08:16:08.423Z,1944.00
2024-01-20T08:17:08.427Z,1940.00
2024-01-20T08:18:08.518Z,1940.00
2024-01-20T08:19:08.620Z,1939.00
2024-01-20T08:20:08.446Z,1938.00
2024-01-20T08:21:08.495Z,1938.00
2024-01-20T08:22:08.500Z,1940.00
2024-01-20T08:23:08.488Z,1940.00
2024-01-20T08:24:08.498Z,1934.00
2024-01-20T08:25:08.470Z,1937.00
2024-01-20T08:26:08.495Z,1935.00
2024-01-20T08:27:08.529Z,1933.00
2024-01-20T08:28:08.546Z,1932.00
2024-01-20T08:29:08.550Z,1931.00
2024-01-20T08:30:08.736Z,1931.00
2024-01-20T08:31:08.824Z,1939.00
2024-01-20T08:32:08.689Z,1941.00
2024-01-20T08:33:09.415Z,1943.00
2024-01-20T08:34:08.966Z,1939.00
2024-01-20T08:35:08.821Z,1936.00
2024-01-20T08:36:08.910Z,1941.00
2024-01-20T08:37:08.988Z,1939.00
2024-01-20T08:38:09.018Z,1934.00
2024-01-20T08:39:09.151Z,1935.00
2024-01-20T08:40:09.157Z,1933.00
2024-01-20T08:41:09.218Z,1932.00
2024-01-20T08:42:09.322Z,1928.00
2024-01-20T08:43:09.365Z,1926.00
2024-01-20T08:44:09.441Z,1928.00
2024-01-20T08:45:09.736Z,1925.00
2024-01-20T08:46:10.297Z,1926.00
2024-01-20T08:47:09.642Z,1920.00
2024-01-20T08:48:09.697Z,1921.00
2024-01-20T08:49:09.831Z,1919.00
2024-01-20T08:50:09.769Z,1918.00
2024-01-20T08:51:09.945Z,1921.00
2024-01-20T08:52:09.872Z,1921.00
2024-01-20T08:53:09.942Z,1918.00
2024-01-20T08:54:10.043Z,1919.00
2024-01-20T08:55:09.998Z,1918.00
2024-01-20T08:56:10.042Z,1914.00
2024-01-20T08:57:10.055Z,1913.00
2024-01-20T08:58:10.033Z,1916.00
2024-01-20T08:59:10.067Z,1912.00
2024-01-20T09:00:10.072Z,1909.00
2024-01-20T09:01:10.082Z,1910.00
2024-01-20T09:02:10.114Z,1907.00
2024-01-20T09:03:10.218Z,1906.00
2024-01-20T09:04:10.282Z,1911.00
2024-01-20T09:05:10.287Z,1909.00
2024-01-20T09:06:10.460Z,1907.00
2024-01-20T09:07:10.459Z,1906.00
2024-01-20T09:08:10.681Z,1906.00
2024-01-20T09:09:10.600Z,1905.00
2024-01-20T09:10:10.623Z,1905.00
2024-01-20T09:11:10.699Z,1908.00
2024-01-20T09:12:10.745Z,1908.00
2024-01-20T09:13:10.807Z,1907.00
2024-01-20T09:14:10.829Z,1908.00
2024-01-20T09:15:10.952Z,1911.00
2024-01-20T09:16:11.032Z,1912.00
2024-01-20T09:17:10.983Z,1913.00
2024-01-20T09:18:11.179Z,1914.00
2024-01-20T09:19:11.250Z,1913.00
2024-01-20T09:20:11.379Z,1914.00
2024-01-20T09:21:11.273Z,1909.00
2024-01-20T09:22:11.247Z,1908.00
2024-01-20T09:23:11.285Z,1903.00
2024-01-20T09:24:11.370Z,1902.00
2024-01-20T09:25:11.412Z,1902.00
2024-01-20T09:26:11.438Z,1901.00
2024-01-20T09:27:11.543Z,1900.00
2024-01-20T09:28:11.506Z,1897.00
2024-01-20T09:29:11.602Z,1897.00
2024-01-20T09:30:11.634Z,1893.00
2024-01-20T09:31:11.613Z,1891.00
2024-01-20T09:32:11.613Z,1889.00
2024-01-20T09:33:11.738Z,1889.00
2024-01-20T09:34:11.716Z,1890.00
2024-01-20T09:35:11.655Z,1883.00
2024-01-20T09:36:11.731Z,1878.00
2024-01-20T09:37:12.381Z,1879.00
2024-01-20T09:38:11.851Z,1880.00
2024-01-20T09:39:11.949Z,1881.00
2024-01-20T09:40:11.973Z,1881.00
2024-01-20T09:41:12.077Z,1879.00
2024-01-20T09:42:12.070Z,1875.00
2024-01-20T09:43:12.103Z,1873.00
2024-01-20T09:44:12.161Z,1873.00
2024-01-20T09:45:12.184Z,1873.00
2024-01-20T09:46:12.193Z,1872.00
2024-01-20T09:47:12.226Z,1870.00
2024-01-20T09:48:12.462Z,1869.00
2024-01-20T09:49:12.377Z,1873.00
2024-01-20T09:50:12.348Z,1876.00
2024-01-20T09:51:12.416Z,1873.00
2024-01-20T09:52:12.476Z,1872.00
2024-01-20T09:53:12.537Z,1870.00
2024-01-20T09:54:12.651Z,1870.00
2024-01-20T09:55:12.682Z,1871.00
2024-01-20T09:56:12.768Z,1873.00
2024-01-20T09:57:12.895Z,1874.00
2024-01-20T09:58:12.892Z,1873.00
2024-01-20T09:59:12.976Z,1875.00
2024-01-20T10:00:13.082Z,1875.00
2024-01-20T10:01:13.147Z,1875.00
2024-01-20T10:02:13.174Z,1877.00
2024-01-20T10:03:13.515Z,1879.00
2024-01-20T10:04:13.514Z,1876.00
2024-01-20T10:05:13.383Z,1873.00
2024-01-20T10:06:13.481Z,1872.00
2024-01-20T10:07:13.453Z,1872.00
2024-01-20T10:08:13.507Z,1875.00
2024-01-20T10:09:13.587Z,1872.00
2024-01-20T10:10:13.580Z,1876.00
2024-01-20T10:11:13.677Z,1878.00
2024-01-20T10:12:13.663Z,1880.00
2024-01-20T10:13:13.650Z,1880.00
2024-01-20T10:14:13.660Z,1880.00
2024-01-20T10:15:13.702Z,1880.00
2024-01-20T10:16:13.690Z,1877.00
2024-01-20T10:17:13.699Z,1877.00
2024-01-20T10:18:13.763Z,1876.00
2024-01-20T10:19:13.754Z,1876.00
2024-01-20T10:20:13.766Z,1876.00
2024-01-20T10:21:13.829Z,1876.00
2024-01-20T10:22:13.886Z,1877.00
2024-01-20T10:23:13.941Z,1873.00
2024-01-20T10:24:14.031Z,1871.00
2024-01-20T10:25:14.050Z,1870.00
2024-01-20T10:26:14.094Z,1871.00
2024-01-20T10:27:14.149Z,1873.00
2024-01-20T10:28:14.169Z,1875.00
2024-01-20T10:29:14.199Z,1872.00
2024-01-20T10:30:14.195Z,1872.00
2024-01-20T10:31:14.196Z,1871.00
2024-01-20T10:32:14.248Z,1870.00
2024-01-20T10:33:14.351Z,1869.00
2024-01-20T10:34:14.374Z,1867.00
2024-01-20T10:35:14.345Z,1863.00
2024-01-20T10:36:14.300Z,1865.00
2024-01-20T10:37:14.282Z,1864.00
2024-01-20T10:38:14.325Z,1866.00
2024-01-20T10:39:14.384Z,1868.00
2024-01-20T10:40:14.407Z,1868.00
2024-01-20T10:41:14.459Z,1868.00
2024-01-20T10:42:14.485Z,1869.00
2024-01-20T10:43:14.484Z,1869.00
2024-01-20T10:44:14.471Z,1868.00
2024-01-20T10:45:14.524Z,1866.00
2024-01-20T10:46:14.490Z,1867.00
2024-01-20T10:47:14.492Z,1862.00
2024-01-20T10:48:14.595Z,1860.00
2024-01-20T10:49:14.636Z,1857.00
2024-01-20T10:50:14.590Z,1856.00
2024-01-20T10:51:14.684Z,1854.00
2024-01-20T10:52:14.750Z,1855.00
2024-01-20T10:53:14.827Z,1855.00
2024-01-20T10:54:14.935Z,1857.00
2024-01-20T10:55:14.935Z,1860.00
2024-01-20T10:56:15.027Z,1856.00
2024-01-20T10:57:15.108Z,1853.00
2024-01-20T10:58:15.136Z,1854.00
2024-01-20T10:59:17.816Z,1852.00
2024-01-20T11:00:15.200Z,1852.00
2024-01-20T11:01:15.218Z,1855.00
2024-01-20T11:02:15.179Z,1855.00
2024-01-20T11:03:15.246Z,1853.00
2024-01-20T11:04:15.296Z,1852.00
2024-01-20T11:05:15.184Z,1854.00
2024-01-20T11:06:15.221Z,1854.00
2024-01-20T11:07:15.184Z,1850.00
2024-01-20T11:08:15.182Z,1846.00
2024-01-20T11:09:15.217Z,1843.00
2024-01-20T11:10:15.334Z,1843.00
2024-01-20T11:11:15.210Z,1842.00
2024-01-20T11:12:15.250Z,1843.00
2024-01-20T11:13:15.206Z,1845.00
2024-01-20T11:14:15.210Z,1840.00
2024-01-20T11:15:15.284Z,1838.00
2024-01-20T11:16:15.201Z,1837.00
2024-01-20T11:17:15.230Z,1838.00
2024-01-20T11:18:16.321Z,1839.00
2024-01-20T11:19:15.323Z,1837.00
2024-01-20T11:20:15.199Z,1840.00
2024-01-20T11:21:15.246Z,1838.00
2024-01-20T11:22:15.220Z,1837.00
2024-01-20T11:23:15.200Z,1839.00
2024-01-20T11:24:16.313Z,1839.00
2024-01-20T11:25:15.229Z,1836.00
2024-01-20T11:26:15.211Z,1837.00
2024-01-20T11:27:15.347Z,1835.00
2024-01-20T11:28:15.231Z,1836.00
2024-01-20T11:29:15.220Z,1835.00
2024-01-20T11:30:17.376Z,1833.00
2024-01-20T11:31:15.219Z,1831.00
2024-01-20T11:32:15.238Z,1831.00
2024-01-20T11:33:15.358Z,1835.00
2024-01-20T11:34:15.440Z,1835.00
2024-01-20T11:35:15.227Z,1833.00
2024-01-20T11:36:17.095Z,1829.00
2024-01-20T11:37:15.254Z,1829.00
2024-01-20T11:38:15.269Z,1833.00
2024-01-20T11:39:15.336Z,1830.00
2024-01-20T11:40:15.326Z,1829.00
2024-01-20T11:41:15.358Z,1833.00
2024-01-20T11:42:15.380Z,1833.00
2024-01-20T11:43:15.407Z,1832.00
2024-01-20T11:44:15.431Z,1836.00
2024-01-20T11:45:15.449Z,1837.00
2024-01-20T11:46:15.472Z,1831.00
2024-01-20T11:47:15.466Z,1827.00
2024-01-20T11:48:15.782Z,1829.00
2024-01-20T11:49:15.551Z,1834.00
2024-01-20T11:50:15.533Z,1833.00
2024-01-20T11:51:15.630Z,1832.00
2024-01-20T11:52:15.571Z,1833.00
2024-01-20T11:53:15.604Z,1833.00
2024-01-20T11:54:15.660Z,1832.00
2024-01-20T11:55:15.622Z,1837.00
2024-01-20T11:56:15.662Z,1841.00
2024-01-20T11:57:15.726Z,1844.00
2024-01-20T11:58:15.694Z,1842.00
2024-01-20T11:59:15.757Z,1837.00
2024-01-20T12:00:15.836Z,1838.00
2024-01-20T12:01:15.943Z,1836.00
2024-01-20T12:02:15.867Z,1835.00
2024-01-20T12:03:15.934Z,1827.00
2024-01-20T12:04:15.989Z,1826.00
2024-01-20T12:05:18.848Z,1826.00
2024-01-20T12:06:16.800Z,1821.00